Tiempo atmosférico en la estación meteorológica de Linares, Jaén (515 m.)



Fecha
DESCASC
Temp. máxima en grados centígrados (hora)
DESCASC
Temp. mínima en grados centígrados (hora)
DESCASC
Temp. media en grados centígrados
DESCASC
Racha de viento máxima en m/sg (hora)
DESCASC
Velocidad máxima media en intervalos de 10 minutos(hora)
DESCASC
Precipitaciones diarias en mm
DESCASC
Precipitaciones de 00:00 a 06:00 en mm
DESCASC
Precipitaciones de 06:00 a 12:00 en mm
DESCASC
Precipitaciones de 12:00 a 18:00 en mm
DESCASC
Precipitaciones de 18:00 a 24:00 en mm
DESCASC
26-11-2020 11.8 (10:20) 7.9 (23:59) 9.9 6.67 (14:00) 2.78 (14:00) 5.8 0.6 2.2 3 0
25-11-2020 16.9 (15:20) 6.8 (04:50) 11.8 9.72 (16:10) 3.61 (16:20) 5.4 0.6 0 0.8 4
24-11-2020 16.3 (16:10) 5 (07:40) 10.6 5 (14:30) 2.22 (15:00) 0 0 0 0 0
23-11-2020 18.4 (16:10) 6.5 (08:10) 12.4 4.17 (08:50) 1.94 (23:30) 0 0 0 0 0
22-11-2020 17.9 (16:20) 8.1 (00:00) 13 3.61 (10:10) 1.39 (05:30) 0 0 0 0 0
21-11-2020 19.3 (15:40) 9.8 (00:00) 14.5 5 (21:20) 3.06 (21:20) 0 0 0 0 0
20-11-2020 20.3 (15:50) 12.2 (00:00) 16.2 6.11 (17:20) 3.33 (19:00) 0 0 0 0 0
19-11-2020 23.6 (14:00) 13.1 (00:00) 18.4 8.61 (20:10) 4.17 (16:20) 0 0 0 0 0
18-11-2020 24.2 (16:20) 10.5 (00:00) 17.4 4.72 (09:40) 2.5 (09:30) 0 0 0 0 0
17-11-2020 21.1 (16:20) 12.8 (00:00) 17 3.33 (11:40) 1.67 (03:20) 0 0 0 0 0
16-11-2020 20.7 (16:30) 13.3 (00:00) 17 4.17 (11:20) 1.94 (11:20) 0 0 0 0 0
15-11-2020 21.1 (16:00) 13.4 (00:00) 17.3 4.72 (04:50) 2.5 (04:50) 0.2 0 0.2 0 0
14-11-2020 15.8 (14:40) 13 (00:00) 14.4 3.33 (15:20) 1.67 (02:40) 2.4 0 0.2 0.6 1.6
13-11-2020 20.2 (15:50) 11.1 (00:00) 15.7 3.89 (15:30) 2.22 (04:00) 0 0 0 0 0
12-11-2020 19.1 (14:20) 11 (00:00) 15.1 4.72 (11:10) 1.94 (13:10) 0 0 0 0 0
11-11-2020 20 (16:00) 11.4 (00:00) 15.7 5.56 (20:20) 3.61 (20:00) 0 0 0 0 0
10-11-2020 19.8 (15:40) 10 (00:00) 14.9 5.56 (19:00) 2.5 (19:00) 0.2 0 0.2 0 0
09-11-2020 17.6 (15:00) 9.8 (00:00) 13.7 4.44 (16:50) 2.22 (15:50) 0 0 0 0 0
08-11-2020 19.5 (16:10) 9.6 (00:00) 14.6 5.83 (14:50) 2.78 (15:10) 0 0 0 0 0
07-11-2020 17 (15:40) 11 (00:00) 14 14.17 (04:30) 5.56 (04:40) 19.2 12 7 0.2 0
06-11-2020 23.7 (14:10) 14.6 (00:00) 19.2 14.44 (11:20) 5.83 (11:30) 6 0 0 0 6
05-11-2020 18 (15:40) 12.1 (00:00) 15.1 9.72 (12:00) 4.44 (11:30) 8.4 8.2 0 0.2 0
04-11-2020 16.9 (00:00) 12.5 (00:00) 14.7 5 (04:30) 2.5 (02:10) 4.8 3.8 0.4 0.2 0.4
03-11-2020 24.8 (16:00) 12.4 (00:00) 18.6 9.44 (19:50) 4.72 (20:00) 0 0 0 0 0
02-11-2020 26.2 (16:10) 12.2 (00:00) 19.2 4.17 (15:20) 2.5 (07:00) 0 0 0 0 0
01-11-2020 26.3 (15:00) 12.8 (00:00) 19.5 3.89 (11:20) 2.22 (05:30) 0 0 0 0 0
31-10-2020 25.3 (14:40) 13.3 (00:00) 19.3 4.17 (14:50) 1.94 (13:40) 0 0 0 0 0
30-10-2020 26.4 (14:30) 14.3 (00:00) 20.3 4.72 (19:50) 2.78 (19:50) 0 0 0 0 0
29-10-2020 24.6 (14:20) 10.9 (00:00) 17.8 5.56 (20:00) 3.06 (20:00) 0 0 0 0 0
28-10-2020 20.4 (14:30) 7.8 (00:00) 14.1 4.17 (15:20) 2.22 (05:20) 0 0 0 0 0

Gráficas

Temp. máximas Temp. mínimas Temp. medias Precipitaciones Rachas de viento máximas Velocidades máximas media en intervalos de 10 minutos

Datos horarios

Fecha y hora oficial Temperatura (ºC) Velocidad del viento (km/h) Dirección del viento Racha (km/h) Dirección de racha Precipitación (mm) Presión (hPa) Tendencia (hPa) Humedad (%)
2020-11-26 23:00:00 8.8 4 Sur 10 Sur 0 -- -- 90
2020-11-26 22:00:00 9.1 3 Este 10 Nordeste 0 -- -- 88
2020-11-26 21:00:00 8.7 2 Este 6 Nordeste 0 -- -- 90
2020-11-26 20:00:00 8.6 2 Este 9 Nordeste 0 -- -- 94
2020-11-26 19:00:00 8.6 2 Este 9 Nordeste 0 -- -- 94
2020-11-26 18:00:00 8.6 3 Norte 9 Noroeste 0 -- -- 95
2020-11-26 17:00:00 8.6 4 Oeste 8 Noroeste 0.2 -- -- 96
2020-11-26 16:00:00 8.6 5 Noroeste 15 Oeste 0.2 -- -- 96
2020-11-26 15:00:00 8.7 7 Oeste 23 Oeste 1.6 -- -- 96
2020-11-26 14:00:00 8.9 10 Oeste 24 Oeste 1 -- -- 95
2020-11-26 13:00:00 10.1 3 Oeste 10 Oeste 0 -- -- 95
2020-11-26 12:00:00 10.2 5 Oeste 11 Oeste 0.8 -- -- 94
2020-11-26 11:00:00 10.4 0 Calma 10 Nordeste 1.2 -- -- 89
2020-11-26 10:00:00 11.5 8 Nordeste 11 Nordeste 0 -- -- 77
2020-11-26 09:00:00 10.2 2 Sudeste 7 Este 0 -- -- 87
2020-11-26 08:00:00 9.6 2 Este 6 Sudeste 0 -- -- 92
2020-11-26 07:00:00 10.3 4 Nordeste 6 Nordeste 0.2 -- -- 87
2020-11-26 06:00:00 9.8 0 Calma 6 Sudoeste 0.4 -- -- 92
2020-11-26 05:00:00 10.9 3 Este 21 Sudeste 0.2 -- -- 81
2020-11-26 04:00:00 9.9 4 Sudeste 15 Sudeste 0 -- -- 88
2020-11-26 03:00:00 9.2 5 Sudeste 13 Sudeste 0 -- -- 93
2020-11-26 02:00:00 9.3 4 Este 9 Este 0 -- -- 95
2020-11-26 01:00:00 9.5 4 Este 13 Nordeste 0 -- -- 96
2020-11-26 00:00:00 9.4 3 Este 7 Nordeste 0.2 -- -- 96
2020-11-25 23:00:00 9.5 3 Este 9 Sudeste 0 -- -- 96
2020-11-25 22:00:00 9.8 0 Calma 6 Sudoeste 2.2 -- -- 95
2020-11-25 21:00:00 10 2 Sur 5 Oeste 0.4 -- -- 95
2020-11-25 20:00:00 9.8 3 Noroeste 10 Oeste 1 -- -- 94
2020-11-25 19:00:00 10.2 6 Oeste 13 Oeste 0.2 -- -- 89
2020-11-25 18:00:00 10.7 4 Sudoeste 15 Oeste 0.2 -- -- 87
2020-11-25 17:00:00 10.8 7 Oeste 35 Oeste 0.6 -- -- 88
2020-11-25 16:00:00 16.1 4 Sudeste 13 Sudeste 0 -- -- 52
2020-11-25 15:00:00 16.6 3 Este 10 Nordeste 0 -- -- 52
2020-11-25 14:00:00 15.4 3 Este 9 Sudeste 0 -- -- 57
2020-11-25 13:00:00 15.2 2 Este 9 Sudeste 0 -- -- 58
2020-11-25 12:00:00 14.7 2 Este 9 Sudeste 0 -- -- 61
2020-11-25 11:00:00 13.5 2 Este 5 Sudeste 0 -- -- 68
2020-11-25 10:00:00 10.9 3 Sudeste 10 Sudeste 0 -- -- 77
2020-11-25 09:00:00 9.1 4 Sudeste 10 Sudeste 0 -- -- 83
2020-11-25 08:00:00 8.6 5 Sudeste 10 Sudeste 0 -- -- 83
2020-11-25 07:00:00 8.1 4 Sudeste 9 Sudeste 0 -- -- 85
2020-11-25 06:00:00 8.5 4 Sudeste 10 Sudeste 0 -- -- 83
2020-11-25 05:00:00 7 5 Sudeste 10 Sudeste 0 -- -- 89
2020-11-25 04:00:00 8 4 Sur 12 Sudeste 0.6 -- -- 88
2020-11-25 03:00:00 9.4 2 Sudoeste 6 Sudeste 0 -- -- 76
2020-11-25 02:00:00 10.3 2 Sudeste 6 Sudeste 0 -- -- 65
2020-11-25 01:00:00 10.2 3 Sudeste 8 Sudeste 0 -- -- 64
2020-11-25 00:00:00 9.6 3 Sudeste 9 Sudeste 0 -- -- 66
2020-11-24 23:00:00 9.4 6 Sudeste 10 Sudeste 0 -- -- 68
2020-11-24 22:00:00 10.3 3 Sur 6 Sur 0 -- -- 64
2020-11-24 21:00:00 10.9 2 Sur 5 Sur 0 -- -- 62
2020-11-24 20:00:00 11.1 0 Calma 8 Sur 0 -- -- 62
2020-11-24 19:00:00 11.3 3 Sur 8 Sur 0 -- -- 60
2020-11-24 18:00:00 12.3 0 Calma 7 Oeste 0 -- -- 55
2020-11-24 17:00:00 14.7 3 Oeste 13 Oeste 0 -- -- 46
2020-11-24 16:00:00 16.1 5 Oeste 17 Oeste 0 -- -- 42
2020-11-24 15:00:00 15.2 8 Oeste 18 Oeste 0 -- -- 44
2020-11-24 14:00:00 15.3 4 Sudoeste 12 Oeste 0 -- -- 38
2020-11-24 13:00:00 12.8 2 Sudoeste 10 Oeste 0.6 -- -- 55
2020-11-24 12:00:00 -- 0 Calma 6 Noroeste 0.4 -- -- --
2020-11-24 11:00:00 10.5 3 Sudeste 7 Este 0 -- -- 56
2020-11-24 10:00:00 9 2 Sudeste 8 Sudeste 0 -- -- 59
2020-11-24 09:00:00 7.5 2 Este 5 Sudeste 0 -- -- 62
2020-11-24 08:00:00 6.1 2 Este 10 Sudeste 0 -- -- 69
2020-11-24 07:00:00 6.7 2 Este 5 Este 0 -- -- 68
2020-11-24 06:00:00 6.9 3 Sudeste 6 Sudeste 0 -- -- 67
2020-11-24 05:00:00 6.3 3 Este 6 Sudeste 0 -- -- 71
2020-11-24 04:00:00 7.4 0 Calma 10 Sudeste 0 -- -- 67
2020-11-24 03:00:00 7.8 5 Sudeste 9 Sudeste 0 -- -- 68
2020-11-24 02:00:00 8.3 3 Este 4 Este 0 -- -- 67
2020-11-24 01:00:00 9.2 2 Este 4 Sudeste 0 -- -- 63
2020-11-24 00:00:00 9.4 2 Sudeste 9 Sudeste 0 -- -- 66
2020-11-23 23:00:00 10.1 0 Calma 3 Sudeste 0 -- -- 63
2020-11-23 22:00:00 10.5 2 Sudeste 5 Sudeste 0 -- -- 62
2020-11-23 21:00:00 11.2 0 Calma 4 Oeste 0 -- -- 58
2020-11-23 20:00:00 11.6 0 Calma 5 Oeste 0 -- -- 57
2020-11-23 19:00:00 12.5 0 Calma 4 Sudoeste 0 -- -- 55
2020-11-23 18:00:00 14 0 Calma 6 Oeste 0 -- -- 49
2020-11-23 17:00:00 16.6 2 Sudoeste 8 Oeste 0 -- -- 41
2020-11-23 16:00:00 18.2 4 Oeste 10 Oeste 0 -- -- 37
2020-11-23 15:00:00 18 3 Sudoeste 9 Sudeste 0 -- -- 37
2020-11-23 14:00:00 17.3 3 Sudeste 11 Sudeste 0 -- -- 41
2020-11-23 13:00:00 14.5 3 Este 11 Sudeste 0 -- -- 45
2020-11-23 12:00:00 13.4 3 Este 7 Este 0 -- -- 48
2020-11-23 11:00:00 10.9 3 Este 5 Sudeste 0 -- -- 57
2020-11-23 10:00:00 9.2 3 Sudeste 10 Sudeste 0 -- -- 56
2020-11-23 09:00:00 7.3 4 Este 15 Sudeste 0 -- -- 61
2020-11-23 08:00:00 6.7 3 Este 11 Sudeste 0 -- -- 64
2020-11-23 07:00:00 7.7 2 Este 5 Este 0 -- -- 63
2020-11-23 06:00:00 7.8 3 Este 10 Sudeste 0 -- -- 64
2020-11-23 05:00:00 8.1 4 Sudeste 12 Sudeste 0 -- -- 63
2020-11-23 04:00:00 8.2 3 Este 7 Sudeste 0 -- -- 62
2020-11-23 03:00:00 9 2 Este 6 Este 0 -- -- 58
2020-11-23 02:00:00 9.1 2 Este 10 Sudeste 0 -- -- 58
2020-11-23 01:00:00 8.9 2 Este 10 Sudeste 0 -- -- 60
2020-11-23 00:00:00 9.7 3 Sudeste 8 Sudeste 0 -- -- 61
2020-11-22 23:00:00 10.5 0 Calma 5 Sudeste 0 -- -- 61
2020-11-22 22:00:00 11.4 0 Calma 2 Sudeste 0 -- -- 56
2020-11-22 21:00:00 11.7 0 Calma -- -- 0 -- -- 56
2020-11-22 20:00:00 12.5 0 Calma 0 Calma 0 -- -- 53
2020-11-22 19:00:00 12.7 0 Calma 4 Sudeste 0 -- -- 50
2020-11-22 18:00:00 14.2 3 Sudeste 5 Este 0 -- -- 53
2020-11-22 17:00:00 16.5 3 Sudeste 7 Sudeste 0 -- -- 47
2020-11-22 16:00:00 17.1 0 Calma 9 Noroeste 0 -- -- 46
2020-11-22 15:00:00 16.8 2 Este 8 Sur 0 -- -- 47
2020-11-22 14:00:00 16.5 3 Este 11 Sudeste 0 -- -- 48
2020-11-22 13:00:00 14 3 Sudeste 10 Sudeste 0 -- -- 53
2020-11-22 12:00:00 13.8 3 Este 11 Este 0 -- -- 55
2020-11-22 11:00:00 11.4 3 Este 13 Sudeste 0 -- -- 64
2020-11-22 10:00:00 9.8 3 Este 9 Sudeste 0 -- -- 71
2020-11-22 09:00:00 8.8 3 Este 6 Sudeste 0 -- -- 75
2020-11-22 08:00:00 8.1 0 Calma 12 Sudeste 0 -- -- 77
2020-11-22 07:00:00 8.5 4 Sudeste 11 Sudeste 0 -- -- 75
2020-11-22 06:00:00 9 3 Este 11 Sudeste 0 -- -- 73
2020-11-22 05:00:00 9.6 3 Sudeste 5 Sudeste 0 -- -- 72
2020-11-22 04:00:00 9.9 0 Calma 5 Este 0 -- -- 71
2020-11-22 03:00:00 10.3 2 Este 5 Sudeste 0 -- -- 69
2020-11-22 02:00:00 10.9 3 Este 7 Sudeste 0 -- -- 67
2020-11-22 01:00:00 11.5 2 Este 10 Sudeste 0 -- -- 65
2020-11-22 00:00:00 12 3 Este 12 Sudeste 0 -- -- 62
2020-11-21 23:00:00 12.7 7 Sudeste 15 Sudeste 0 -- -- 59
2020-11-21 22:00:00 13.3 9 Sudeste 18 Sudeste 0 -- -- 57
2020-11-21 21:00:00 13.9 9 Sudeste 16 Sudeste 0 -- -- 56
2020-11-21 20:00:00 15.2 0 Calma 5 Nordeste 0 -- -- 50
2020-11-21 19:00:00 16.1 2 Este 10 Nordeste 0 -- -- 45
2020-11-21 18:00:00 16.4 2 Este 6 Este 0 -- -- 46
2020-11-21 17:00:00 18.3 0 Calma 7 Nordeste 0 -- -- 40
2020-11-21 16:00:00 19.1 2 Este 7 Sudeste 0 -- -- 42
2020-11-21 15:00:00 18.8 4 Este 14 Sudeste 0 -- -- 43
2020-11-21 14:00:00 18.6 4 Sudeste 13 Sudeste 0 -- -- 44
2020-11-21 13:00:00 16.5 4 Sur 14 Sudeste 0 -- -- 52
2020-11-21 12:00:00 15.8 3 Este 15 Sudeste 0 -- -- 55
2020-11-21 11:00:00 13.5 5 Este 11 Nordeste 0 -- -- 62
2020-11-21 10:00:00 11.8 3 Este 9 Este 0 -- -- 66
2020-11-21 09:00:00 10.2 4 Este 12 Sudeste 0 -- -- 59
2020-11-21 08:00:00 10 6 Sudeste 16 Sudeste 0 -- -- 58
2020-11-21 07:00:00 10.5 5 Este 13 Sudeste 0 -- -- 51
2020-11-21 06:00:00 11 4 Este 10 Sudeste 0 -- -- 49
2020-11-21 05:00:00 11.2 5 Este 14 Nordeste 0 -- -- 51
2020-11-21 04:00:00 11.1 5 Este 13 Nordeste 0 -- -- 47
2020-11-21 03:00:00 10.9 0 Calma 12 Nordeste 0 -- -- 49
2020-11-21 02:00:00 11.9 4 Este 11 Nordeste 0 -- -- 46
2020-11-21 01:00:00 12.3 4 Este 9 Sudeste 0 -- -- 44
2020-11-21 00:00:00 12.2 3 Este 14 Sudeste 0 -- -- 43
2020-11-20 23:00:00 12.4 8 Sudeste 13 Sudeste 0 -- -- 43
2020-11-20 22:00:00 13.5 3 Este 12 Este 0 -- -- 38
2020-11-20 21:00:00 14.8 6 Este 17 Nordeste 0 -- -- 34
2020-11-20 20:00:00 15.4 6 Nordeste 21 Norte 0 -- -- 33
2020-11-20 19:00:00 16.2 12 Nordeste 21 Nordeste 0 -- -- 31
2020-11-20 18:00:00 17.1 9 Norte 22 Nordeste 0 -- -- 30
2020-11-20 17:00:00 19 10 Nordeste 20 Norte 0 -- -- 25
2020-11-20 16:00:00 20 5 Nordeste 11 Nordeste 0 -- -- 30
2020-11-20 15:00:00 20.1 5 Sudeste 14 Nordeste 0 -- -- 33
2020-11-20 14:00:00 19.7 4 Este 19 Nordeste 0 -- -- 34
2020-11-20 13:00:00 17.9 7 Nordeste 18 Nordeste 0 -- -- 35
2020-11-20 12:00:00 16.9 4 Este 18 Sudeste 0 -- -- 48
2020-11-20 11:00:00 15.1 7 Sudeste 19 Sudeste 0 -- -- 59
2020-11-20 10:00:00 13.6 7 Sudeste 17 Sudeste 0 -- -- 67
2020-11-20 09:00:00 12.8 3 Este 13 Nordeste 0 -- -- 70
2020-11-20 08:00:00 12.7 3 Este 8 Sudeste 0 -- -- 71
2020-11-20 07:00:00 12.9 5 Este 14 Sudeste 0 -- -- 71
2020-11-20 06:00:00 13.1 4 Sudeste 19 Nordeste 0 -- -- 72
2020-11-20 05:00:00 13.9 10 Nordeste 18 Este 0 -- -- 67
2020-11-20 04:00:00 14.2 3 Este 13 Sudeste 0 -- -- 63
2020-11-20 03:00:00 14.9 3 Este 9 Sudeste 0 -- -- 60
2020-11-20 02:00:00 14.6 6 Sudeste 12 Sudeste 0 -- -- 60
2020-11-20 01:00:00 15.2 5 Sudeste 10 Sudeste 0 -- -- 58
2020-11-20 00:00:00 16.2 3 Este 12 Este 0 -- -- 55
2020-11-19 23:00:00 16.5 4 Sudeste 9 Sudeste 0 -- -- 51
2020-11-19 22:00:00 17 5 Sudeste 13 Nordeste 0 -- -- 51
2020-11-19 21:00:00 18.2 5 Este 31 Este 0 -- -- 47
2020-11-19 20:00:00 18.6 10 Norte 25 Norte 0 -- -- 49
2020-11-19 19:00:00 19.7 10 Norte 24 Norte 0 -- -- 46
2020-11-19 18:00:00 21.1 6 Nordeste 16 Norte 0 -- -- 43
2020-11-19 17:00:00 22.5 9 Norte 29 Norte 0 -- -- 40
2020-11-19 16:00:00 23.4 11 Norte 22 Norte 0 -- -- 38
2020-11-19 15:00:00 23.3 13 Nordeste 25 Norte 0 -- -- 37
2020-11-19 14:00:00 23.6 5 Este 14 Nordeste 0 -- -- 37
2020-11-19 13:00:00 20.5 3 Este 12 Este 0 -- -- 46
2020-11-19 12:00:00 19 5 Sudeste 14 Sudeste 0 -- -- 50
2020-11-19 11:00:00 16.3 9 Sudeste 17 Sudeste 0 -- -- 56
2020-11-19 10:00:00 14.9 6 Sudeste 13 Sudeste 0 -- -- 61
2020-11-19 09:00:00 14.1 3 Este 11 Sudeste 0 -- -- 63
2020-11-19 08:00:00 13.2 7 Sudeste 15 Sudeste 0 -- -- 64
2020-11-19 07:00:00 13.6 3 Este 17 Este 0 -- -- 62
2020-11-19 06:00:00 13.4 3 Este 14 Sudeste 0 -- -- 62
2020-11-19 05:00:00 14.6 4 Este 17 Sudeste 0 -- -- 57
2020-11-19 04:00:00 14 3 Este 10 Sudeste 0 -- -- 60
2020-11-19 03:00:00 16 4 Este 7 Este 0 -- -- 50
2020-11-19 02:00:00 16.1 3 Este 7 Sudeste 0 -- -- 49
2020-11-19 01:00:00 16.5 3 Este 7 Sudeste 0 -- -- 50
2020-11-19 00:00:00 17.2 4 Este 8 Este 0 -- -- 49
2020-11-18 23:00:00 17.5 4 Este 14 Sudeste 0 -- -- 52
2020-11-18 22:00:00 18.5 3 Este 4 Este 0 -- -- 49
2020-11-18 21:00:00 18.4 0 Calma 8 Nordeste 0 -- -- 49
2020-11-18 20:00:00 18.8 0 Calma 2 Norte 0 -- -- 50
2020-11-18 19:00:00 19.5 0 Calma 3 Noroeste 0 -- -- 49
2020-11-18 18:00:00 20.6 0 Calma 5 Sudeste 0 -- -- 44
2020-11-18 17:00:00 23.1 0 Calma 10 Noroeste -- -- -- 40
2020-11-18 16:00:00 24 2 Oeste 10 Sudeste 0 -- -- 34
2020-11-18 15:00:00 23.5 2 Este 6 Norte 0 -- -- 37
2020-11-18 14:00:00 21.4 4 Nordeste 9 Norte 0 -- -- 45
2020-11-18 13:00:00 19 4 Nordeste 9 Este 0 -- -- 51
2020-11-18 12:00:00 18.1 3 Este 13 Sudeste 0 -- -- 58
2020-11-18 11:00:00 15.1 4 Sudeste 15 Sudeste 0 -- -- 69
2020-11-18 10:00:00 12.7 7 Sudeste 17 Sudeste 0 -- -- 76
2020-11-18 09:00:00 12 5 Sudeste 15 Sudeste 0 -- -- 79
2020-11-18 08:00:00 10.7 8 Sudeste 16 Este 0 -- -- 84
2020-11-18 07:00:00 11.6 3 Este 12 Sudeste 0 -- -- 83
2020-11-18 06:00:00 11.9 3 Sudeste 8 Sudeste 0 -- -- 82
2020-11-18 05:00:00 12 3 Sudeste 10 Sudeste 0 -- -- 83
2020-11-18 04:00:00 12.8 3 Sudeste 7 Sudeste 0 -- -- 80
2020-11-18 03:00:00 13.1 3 Sudeste 8 Sudeste 0 -- -- 79
2020-11-18 02:00:00 13.4 3 Sudeste 8 Sudeste 0 -- -- 78
2020-11-18 01:00:00 14.2 4 Sudeste 8 Sudeste 0 -- -- 75
2020-11-18 00:00:00 14.6 0 Calma 7 Sudeste 0 -- -- 72
2020-11-17 23:00:00 14.7 3 Sudeste 10 Sudeste 0 -- -- 72
2020-11-17 22:00:00 15.1 3 Sudeste 5 Este 0 -- -- 68
2020-11-17 21:00:00 16.3 2 Sur 5 Sur 0 -- -- 61
2020-11-17 20:00:00 16.6 2 Sur 3 Sur 0 -- -- 65
2020-11-17 19:00:00 16.9 0 Calma 4 Sur 0 -- -- 63
2020-11-17 18:00:00 18.1 0 Calma 6 Oeste 0 -- -- 57
2020-11-17 17:00:00 20 0 Calma 9 Oeste 0 -- -- 48
2020-11-17 16:00:00 20.7 5 Oeste 10 Oeste 0 -- -- 55
2020-11-17 15:00:00 20.2 4 Oeste 10 Noroeste 0 -- -- 60
2020-11-17 14:00:00 19.3 4 Noroeste 9 Noroeste 0 -- -- 68
2020-11-17 13:00:00 17.5 3 Nordeste 9 Nordeste 0 -- -- 78
2020-11-17 12:00:00 16.2 3 Nordeste 12 Norte 0 -- -- 85
2020-11-17 11:00:00 15.2 3 Nordeste 6 Nordeste 0 -- -- 91
2020-11-17 10:00:00 14.2 0 Calma 7 Nordeste 0 -- -- 93
2020-11-17 09:00:00 13.5 0 Calma 4 Sudeste 0 -- -- 94
2020-11-17 08:00:00 12.9 2 Sudeste 6 Sudeste 0 -- -- 94
2020-11-17 07:00:00 13.7 0 Calma 2 Sudeste 0 -- -- 94
2020-11-17 06:00:00 13.7 0 Calma 4 Sudeste 0 -- -- 93
2020-11-17 05:00:00 13.6 0 Calma 10 Sudeste 0 -- -- 95
2020-11-17 04:00:00 13.1 5 Sudeste 10 Sudeste 0 -- -- 95
2020-11-17 03:00:00 13.5 5 Sudeste 10 Sudeste 0 -- -- 93
2020-11-17 02:00:00 14.3 0 Calma 4 Sudeste 0 -- -- 93
2020-11-17 01:00:00 14.2 0 Calma 5 Sur 0 -- -- 92
2020-11-17 00:00:00 14.9 3 Sur 5 Sur 0 -- -- 90
2020-11-16 23:00:00 15.4 2 Sur 5 Sur 0 -- -- 87
2020-11-16 22:00:00 16.3 2 Oeste 4 Oeste 0 -- -- 84
2020-11-16 21:00:00 16.6 3 Oeste 4 Oeste 0 -- -- 83
2020-11-16 20:00:00 16.7 2 Oeste 5 Oeste 0 -- -- 81
2020-11-16 19:00:00 17.2 0 Calma 4 Sur 0 -- -- 79
2020-11-16 18:00:00 18.6 0 Calma 5 Sur 0 -- -- 75
2020-11-16 17:00:00 20.1 3 Sudoeste 9 Oeste 0 -- -- 69
2020-11-16 16:00:00 20.2 4 Norte 12 Noroeste 0 -- -- 67
2020-11-16 15:00:00 20.1 3 Oeste 12 Oeste 0 -- -- 68
2020-11-16 14:00:00 19.5 5 Oeste 10 Oeste 0 -- -- 72
2020-11-16 13:00:00 18.2 3 Oeste 11 Oeste 0 -- -- 78
2020-11-16 12:00:00 17.5 7 Oeste 15 Oeste 0 -- -- 80
2020-11-16 11:00:00 16.4 5 Oeste 11 Oeste 0 -- -- 83
2020-11-16 10:00:00 15 2 Oeste 7 Sudeste 0 -- -- 88
2020-11-16 09:00:00 13.7 0 Calma 2 Sur 0 -- -- 91
2020-11-16 08:00:00 13.3 0 Calma 4 Sudoeste 0 -- -- 90
2020-11-16 07:00:00 13.6 0 Calma 6 Sur 0 -- -- 88
2020-11-16 06:00:00 14.6 4 Sur 8 Sudeste 0 -- -- 86
2020-11-16 05:00:00 14.5 4 Sudeste 6 Sur 0 -- -- 86
2020-11-16 04:00:00 15.1 3 Sudeste 6 Sudeste 0 -- -- 84
2020-11-16 03:00:00 15.2 4 Nordeste 7 Nordeste 0 -- -- 83
2020-11-16 02:00:00 15.6 0 Calma 5 Norte 0 -- -- 81
2020-11-16 01:00:00 15.7 0 Calma 4 Norte 0 -- -- 81
2020-11-16 00:00:00 16.2 3 Sur 4 Sur 0 -- -- 78
2020-11-15 23:00:00 16.5 3 Sudeste 5 Sur 0 -- -- 77
2020-11-15 22:00:00 16.4 0 Calma 5 Sur 0 -- -- 78
2020-11-15 21:00:00 16.7 3 Sur 5 Sur 0 -- -- 76
2020-11-15 20:00:00 16.8 0 Calma 3 Noroeste 0 -- -- 76
2020-11-15 19:00:00 17.5 3 Noroeste 5 Noroeste 0 -- -- 72
2020-11-15 18:00:00 18.7 0 Calma 9 Oeste 0 -- -- 70
2020-11-15 17:00:00 20.3 5 Oeste 9 Oeste 0 -- -- 64
2020-11-15 16:00:00 21.1 6 Oeste 14 Oeste 0 -- -- 60
2020-11-15 15:00:00 20.2 5 Oeste 12 Oeste 0 -- -- 64
2020-11-15 14:00:00 19.2 5 Oeste 10 Oeste 0 -- -- 69
2020-11-15 13:00:00 17.3 3 Este 8 Sudeste 0 -- -- 75
2020-11-15 12:00:00 16.3 2 Este 8 Este 0 -- -- 84
2020-11-15 11:00:00 15 2 Sudeste 10 Sudeste 0 -- -- 96
2020-11-15 10:00:00 14 2 Sudeste 8 Sudeste 0 -- -- 96
2020-11-15 09:00:00 13.8 0 Calma 7 Nordeste 0 -- -- 96
2020-11-15 08:00:00 13.5 0 Calma 6 Norte 0 -- -- 96
2020-11-15 07:00:00 13.7 0 Calma 4 Norte 0.2 -- -- 96
2020-11-15 06:00:00 13.5 0 Calma 10 Sudeste 0 -- -- 96
2020-11-15 05:00:00 13.5 7 Sudeste 17 Sudeste 0 -- -- 95
2020-11-15 04:00:00 14 0 Calma 5 Sur 0 -- -- 95
2020-11-15 03:00:00 13.8 3 Sur 5 Sur 0 -- -- 95
2020-11-15 02:00:00 14.1 0 Calma 6 Oeste 0 -- -- 93
2020-11-15 01:00:00 14.4 0 Calma 9 Oeste 0 -- -- 93
2020-11-15 00:00:00 14.3 0 Calma 3 Sur 0 -- -- 93
2020-11-14 23:00:00 14.3 0 Calma 4 Sudoeste 0 -- -- 92
2020-11-14 22:00:00 14.3 0 Calma 5 Sur 0 -- -- 92
2020-11-14 21:00:00 14.1 0 Calma 9 Sur 0 -- -- 93
2020-11-14 20:00:00 14 0 Calma 6 Sudeste 1.2 -- -- 92
2020-11-14 19:00:00 14.2 0 Calma 7 Sudeste 0.4 -- -- 90
2020-11-14 18:00:00 14.6 0 Calma 5 Noroeste 0.6 -- -- 89
2020-11-14 17:00:00 15.1 0 Calma 8 Oeste 0 -- -- 84
2020-11-14 16:00:00 15.1 4 Oeste 12 Noroeste 0 -- -- 83
2020-11-14 15:00:00 15.6 3 Oeste 10 Oeste 0 -- -- 76
2020-11-14 14:00:00 15.4 0 Calma 6 Noroeste 0 -- -- 74
2020-11-14 13:00:00 14.7 3 Oeste 10 Oeste 0 -- -- 76
2020-11-14 12:00:00 15.2 3 Oeste 6 Oeste 0 -- -- 79
2020-11-14 11:00:00 15 0 Calma 7 Sudeste 0.2 -- -- 73
2020-11-14 10:00:00 14.3 0 Calma 6 Sudeste 0 -- -- 73
2020-11-14 09:00:00 13.7 4 Sudeste 8 Sudeste 0 -- -- 74
2020-11-14 08:00:00 13.1 0 Calma 10 Sudeste 0 -- -- 77
2020-11-14 07:00:00 13.1 0 Calma 8 Sudeste 0 -- -- 78
2020-11-14 06:00:00 13.7 0 Calma 10 Sudeste 0 -- -- 72
2020-11-14 05:00:00 13.7 6 Sudeste 10 Sudeste 0 -- -- 71
2020-11-14 04:00:00 13.7 0 Calma 7 Sur 0 -- -- 72
2020-11-14 03:00:00 14.1 4 Sudeste 10 Sudeste 0 -- -- 69
2020-11-14 02:00:00 14.7 2 Sudeste 6 Sudeste 0 -- -- 66
2020-11-14 01:00:00 14.6 5 Sudeste 8 Sudeste 0 -- -- 67
2020-11-14 00:00:00 15 0 Calma 5 Sudeste 0 -- -- 66
2020-11-13 23:00:00 15.2 3 Sudeste 4 Sudeste 0 -- -- 66
2020-11-13 22:00:00 15.5 0 Calma 0 Calma 0 -- -- 60
2020-11-13 21:00:00 15.3 0 Calma 3 Sur 0 -- -- 59
2020-11-13 20:00:00 15.8 3 Sur 8 Sur 0 -- -- 57
2020-11-13 19:00:00 15.6 4 Sur 7 Sur 0 -- -- 61
2020-11-13 18:00:00 16.9 2 Sur 8 Oeste 0 -- -- 54
2020-11-13 17:00:00 19 6 Oeste 12 Noroeste 0 -- -- 48
2020-11-13 16:00:00 19.7 6 Noroeste 14 Oeste 0 -- -- 49
2020-11-13 15:00:00 19.7 4 Oeste 12 Oeste 0 -- -- 49
2020-11-13 14:00:00 18.5 4 Oeste 10 Sudeste 0 -- -- 53
2020-11-13 13:00:00 17.5 3 Sur 10 Sudeste 0 -- -- 59
2020-11-13 12:00:00 16 3 Este 9 Sudeste 0 -- -- 65
2020-11-13 11:00:00 14.2 3 Este 9 Sudeste 0 -- -- 71
2020-11-13 10:00:00 12.5 4 Este 11 Sudeste 0 -- -- 76
2020-11-13 09:00:00 11.7 3 Este 7 Sudeste 0 -- -- 79
2020-11-13 08:00:00 11.3 2 Este 6 Sudeste 0 -- -- 81
2020-11-13 07:00:00 11.2 0 Calma 4 Sudeste 0 -- -- 79
2020-11-13 06:00:00 11.3 3 Sudeste 9 Sudeste 0 -- -- 77
2020-11-13 05:00:00 11.4 6 Sudeste 10 Sudeste 0 -- -- 76
2020-11-13 04:00:00 11.5 8 Sudeste 12 Sudeste 0 -- -- 74
2020-11-13 03:00:00 12.2 6 Sudeste 10 Sudeste 0 -- -- 72
2020-11-13 02:00:00 12.7 6 Sudeste 10 Sudeste 0 -- -- 69
2020-11-13 01:00:00 13.5 5 Sudeste 14 Sudeste 0 -- -- 65
2020-11-13 00:00:00 13.5 6 Sudeste 13 Sudeste 0 -- -- 64
2020-11-12 23:00:00 13.9 2 Este 9 Sudeste 0 -- -- 61
2020-11-12 22:00:00 14.5 3 Sudeste 8 Sudeste 0 -- -- 58
2020-11-12 21:00:00 14.6 4 Sudeste 10 Sudeste 0 -- -- 58
2020-11-12 20:00:00 14.7 0 Calma -- -- 0 -- -- 57
2020-11-12 19:00:00 14.9 0 Calma -- -- 0 -- -- 56
2020-11-12 18:00:00 16.3 0 Calma 10 Sudeste 0 -- -- 51
2020-11-12 17:00:00 17.7 4 Sudeste 12 Sudeste 0 -- -- 46
2020-11-12 16:00:00 18.4 4 Este 10 Nordeste 0 -- -- 44
2020-11-12 15:00:00 18.4 4 Este 14 Sudeste 0 -- -- 44
2020-11-12 14:00:00 18.5 6 Sudeste 17 Nordeste 0 -- -- 46
2020-11-12 13:00:00 16.8 4 Este 14 Este 0 -- -- 55
2020-11-12 12:00:00 16.2 4 Este 17 Sudeste 0 -- -- 58
2020-11-12 11:00:00 14.1 5 Sudeste 15 Sudeste 0 -- -- 66
2020-11-12 10:00:00 12.4 3 Este 8 Este 0 -- -- 72
2020-11-12 09:00:00 11.5 3 Este 6 Nordeste 0 -- -- 76
2020-11-12 08:00:00 11.1 3 Este 6 Este 0 -- -- 78
2020-11-12 07:00:00 11.4 3 Este 6 Sudeste 0 -- -- 77
2020-11-12 06:00:00 11.9 3 Este 7 Sudeste 0 -- -- 75
2020-11-12 05:00:00 12 2 Este 6 Sudeste 0 -- -- 75
2020-11-12 04:00:00 12.7 2 Este 7 Nordeste 0 -- -- 71
2020-11-12 03:00:00 12.8 3 Este 6 Nordeste 0 -- -- 71
2020-11-12 02:00:00 12.9 3 Este 5 Este 0 -- -- 72
2020-11-12 01:00:00 13.2 3 Este 11 Este 0 -- -- 70
2020-11-12 00:00:00 13.8 4 Sudeste 11 Sudeste 0 -- -- 67
2020-11-11 23:00:00 14.3 3 Este 14 Sudeste 0 -- -- 65
2020-11-11 22:00:00 14.5 2 Este 13 Nordeste 0 -- -- 66
2020-11-11 21:00:00 15.3 6 Nordeste 20 Nordeste 0 -- -- 63
2020-11-11 20:00:00 15.6 13 Nordeste 20 Nordeste 0 -- -- 59
2020-11-11 19:00:00 15.2 0 Calma 4 Nordeste 0 -- -- 51
2020-11-11 18:00:00 16.6 3 Nordeste 4 Nordeste 0 -- -- 51
2020-11-11 17:00:00 18.7 0 Calma 6 Nordeste 0 -- -- 42
2020-11-11 16:00:00 20 3 Sudeste 13 Sudeste 0 -- -- 39
2020-11-11 15:00:00 19.5 3 Este 10 Sudeste 0 -- -- 44
2020-11-11 14:00:00 19.3 3 Este 15 Sudeste 0 -- -- 50
2020-11-11 13:00:00 17.5 6 Sudeste 19 Sudeste 0 -- -- 58
2020-11-11 12:00:00 17 5 Sudeste 15 Sudeste 0 -- -- 60
2020-11-11 11:00:00 14.7 3 Este 11 Este 0 -- -- 68
2020-11-11 10:00:00 13.5 3 Este 6 Este 0 -- -- 71
2020-11-11 09:00:00 11.8 3 Este 7 Sudeste 0 -- -- 74
2020-11-11 08:00:00 11.5 4 Este 6 Este 0 -- -- 75
2020-11-11 07:00:00 11.9 4 Este 5 Este 0 -- -- 76
2020-11-11 06:00:00 11.6 2 Este 4 Sudeste 0 -- -- 78
2020-11-11 05:00:00 12.3 3 Este 7 Este 0 -- -- 74
2020-11-11 04:00:00 12.5 3 Este 5 Nordeste 0 -- -- 73
2020-11-11 03:00:00 12.7 2 Este 9 Este 0 -- -- 74
2020-11-11 02:00:00 12.4 2 Este 12 Sudeste 0 -- -- 72
2020-11-11 01:00:00 13.2 2 Este 9 Sudeste 0 -- -- 68
2020-11-11 00:00:00 13.7 3 Este 8 Nordeste 0 -- -- 66
2020-11-10 23:00:00 13.8 3 Este 5 Sudeste 0 -- -- 67
2020-11-10 22:00:00 14 0 Calma 9 Este 0 -- -- 68
2020-11-10 21:00:00 14.4 0 Calma 9 Este 0 -- -- 68
2020-11-10 20:00:00 15.1 2 Este 16 Nordeste 0 -- -- 66
2020-11-10 19:00:00 16.4 9 Nordeste 20 Nordeste 0 -- -- 63
2020-11-10 18:00:00 17.1 0 Calma 10 Noroeste 0 -- -- 48
2020-11-10 17:00:00 18.7 5 Norte 9 Norte 0 -- -- 44
2020-11-10 16:00:00 19.7 2 Este 12 Nordeste 0 -- -- 44
2020-11-10 15:00:00 19.5 3 Este 13 Nordeste 0 -- -- 47
2020-11-10 14:00:00 18.7 4 Sudeste 12 Sudeste 0 -- -- 54
2020-11-10 13:00:00 16.3 4 Este 14 Sudeste 0 -- -- 70
2020-11-10 12:00:00 14.8 3 Este 14 Sudeste 0 -- -- 77
2020-11-10 11:00:00 12.7 3 Este 17 Sudeste 0 -- -- 85
2020-11-10 10:00:00 11.2 6 Sudeste 13 Sudeste 0 -- -- 90
2020-11-10 09:00:00 10.4 0 Calma 5 Este 0 -- -- 94
2020-11-10 08:00:00 10.1 0 Calma 5 Sudeste 0.2 -- -- 94
2020-11-10 07:00:00 10.5 0 Calma 4 Sudeste 0 -- -- 93
2020-11-10 06:00:00 10.4 0 Calma 8 Sudeste 0 -- -- 94
2020-11-10 05:00:00 10.6 3 Sudeste 6 Este 0 -- -- 94
2020-11-10 04:00:00 10.8 4 Sudeste 7 Sudeste 0 -- -- 93
2020-11-10 03:00:00 10.8 3 Sudeste 7 Sudeste 0 -- -- 93
2020-11-10 02:00:00 11.4 3 Sudeste 6 Sudeste 0 -- -- 93
2020-11-10 01:00:00 11.6 2 Sudeste 5 Sur 0 -- -- 92
2020-11-10 00:00:00 11.9 3 Sudeste 7 Sudeste 0 -- -- 91
2020-11-09 23:00:00 12.5 0 Calma 5 Oeste 0 -- -- 87
2020-11-09 22:00:00 12.8 0 Calma 4 Nordeste 0 -- -- 86
2020-11-09 21:00:00 13.2 0 Calma 5 Sudeste 0 -- -- 86
2020-11-09 20:00:00 13.7 0 Calma 9 Sur 0 -- -- 85
2020-11-09 19:00:00 14.3 3 Sur 9 Sur 0 -- -- 81
2020-11-09 18:00:00 15.7 3 Sudoeste 14 Oeste 0 -- -- 73
2020-11-09 17:00:00 16.7 7 Oeste 16 Oeste -- -- -- 66
2020-11-09 16:00:00 17.2 5 Oeste 15 Oeste -- -- -- 65
2020-11-09 15:00:00 17.6 5 Oeste 14 Oeste 0 -- -- 64
2020-11-09 14:00:00 17.2 4 Sudoeste 13 Oeste 0 -- -- 64
2020-11-09 13:00:00 15.9 3 Oeste 8 Oeste 0 -- -- 75
2020-11-09 12:00:00 14.6 0 Calma 9 Sudeste 0 -- -- 78
2020-11-09 11:00:00 13.2 4 Noroeste 6 Noroeste 0 -- -- 80
2020-11-09 10:00:00 12.3 0 Calma 5 Sudeste 0 -- -- 85
2020-11-09 09:00:00 11.1 3 Sudeste 7 Sudeste 0 -- -- 84
2020-11-09 08:00:00 10.8 5 Sudeste 8 Sudeste 0 -- -- 84
2020-11-09 07:00:00 10 3 Sudeste 9 Sudeste 0 -- -- 88
2020-11-09 06:00:00 10.4 5 Sudeste 8 Sudeste 0 -- -- 86
2020-11-09 05:00:00 10.9 2 Sudeste 6 Sudeste 0 -- -- 85
2020-11-09 04:00:00 11.2 3 Sudeste 7 Sudeste 0 -- -- 84
2020-11-09 03:00:00 11.1 4 Sudeste 9 Sudeste 0 -- -- 84
2020-11-09 02:00:00 12.1 4 Sudeste 9 Sudeste 0 -- -- 81
2020-11-09 01:00:00 12.2 3 Sudeste 7 Sudeste 0 -- -- 80
2020-11-09 00:00:00 12.5 5 Sudeste 9 Sudeste 0 -- -- 82
2020-11-08 23:00:00 13.2 3 Sudeste 8 Sudeste 0 -- -- 79
2020-11-08 22:00:00 13.7 0 Calma 3 Sudeste 0 -- -- 75
2020-11-08 21:00:00 14.7 0 Calma 4 Sur 0 -- -- 71
2020-11-08 20:00:00 15 2 Sur 6 Sur 0 -- -- 69
2020-11-08 19:00:00 15.3 4 Sur 6 Sur 0 -- -- 68
2020-11-08 18:00:00 16.6 3 Sur 11 Oeste 0 -- -- 63
2020-11-08 17:00:00 18.3 4 Sudoeste 18 Oeste 0 -- -- 55
2020-11-08 16:00:00 19.4 7 Oeste 19 Noroeste 0 -- -- 52
2020-11-08 15:00:00 18.7 9 Oeste 21 Noroeste 0 -- -- 53
2020-11-08 14:00:00 18.8 5 Sudoeste 14 Oeste 0 -- -- 54
2020-11-08 13:00:00 16.4 2 Este 13 Sudeste 0 -- -- 65
2020-11-08 12:00:00 15.8 4 Sudeste 10 Sudeste 0 -- -- 67
2020-11-08 11:00:00 13.3 2 Este 7 Nordeste 0 -- -- 79
2020-11-08 10:00:00 11.4 4 Nordeste 8 Nordeste 0 -- -- 85
2020-11-08 09:00:00 10.4 4 Sudeste 8 Sudeste 0 -- -- 89
2020-11-08 08:00:00 9.6 4 Sudeste 12 Sudeste 0 -- -- 91
2020-11-08 07:00:00 9.6 4 Sudeste 11 Sudeste 0 -- -- 92
2020-11-08 06:00:00 10 3 Sudeste 8 Sudeste 0 -- -- 91
2020-11-08 05:00:00 10.9 0 Calma 4 Este 0 -- -- 89
2020-11-08 04:00:00 10.7 3 Sudeste 10 Sudeste 0 -- -- 90
2020-11-08 03:00:00 10.8 3 Sudeste 7 Sudeste 0 -- -- 89
2020-11-08 02:00:00 11.5 0 Calma 5 Sudeste 0 -- -- 89
2020-11-08 01:00:00 11.8 0 Calma 4 Sudeste 0 -- -- 88
2020-11-08 00:00:00 12.3 3 Sudeste 8 Sudeste 0 -- -- 88
2020-11-07 23:00:00 12.2 4 Sudeste 9 Sudeste 0 -- -- 89
2020-11-07 22:00:00 12.4 3 Sudeste 8 Sudeste 0 -- -- 87
2020-11-07 21:00:00 12.4 4 Sur 6 Oeste 0 -- -- 86
2020-11-07 20:00:00 12.9 3 Oeste 9 Oeste 0 -- -- 82
2020-11-07 19:00:00 13.4 0 Calma 14 Oeste 0 -- -- 82
2020-11-07 18:00:00 15.4 6 Oeste 18 Oeste 0 -- -- 73
2020-11-07 17:00:00 15.9 10 Oeste 24 Oeste 0 -- -- 70
2020-11-07 16:00:00 16.8 10 Oeste 25 Oeste 0 -- -- 69
2020-11-07 15:00:00 16.3 13 Oeste 30 Oeste 0 -- -- 74
2020-11-07 14:00:00 15.1 13 Oeste 32 Oeste 0.2 -- -- 84
2020-11-07 13:00:00 13.9 9 Oeste 26 Oeste 0 -- -- 92
2020-11-07 12:00:00 13 12 Sudoeste 27 Oeste 3 -- -- 94
2020-11-07 11:00:00 13 8 Oeste 19 Oeste 0 -- -- 93
2020-11-07 10:00:00 12.5 4 Sudoeste 18 Sur 0 -- -- 94
2020-11-07 09:00:00 11.3 2 Oeste 9 Oeste 2.6 -- -- 94
2020-11-07 08:00:00 11 5 Noroeste 11 Sudeste 1.2 -- -- 94
2020-11-07 07:00:00 11 4 Sudeste 10 Este 0.2 -- -- 93
2020-11-07 06:00:00 11.1 4 Sudeste 16 Oeste 0.2 -- -- 92
2020-11-07 05:00:00 11.2 12 Oeste 51 Oeste 4.8 -- -- 91
2020-11-07 04:00:00 13.1 4 Sudeste 17 Sudeste 0 -- -- 90
2020-11-07 03:00:00 13.2 8 Sudeste 20 Sudeste 0 -- -- 91
2020-11-07 02:00:00 13.3 8 Sudeste 26 Sudeste 3.6 -- -- 92
2020-11-07 01:00:00 14.2 0 Calma 15 Oeste 3.4 -- -- 91
2020-11-07 00:00:00 14.6 8 Oeste 23 Oeste 4.4 -- -- 91
2020-11-06 23:00:00 15.6 3 Oeste 26 Sudoeste 1.6 -- -- 83
2020-11-06 22:00:00 17.6 7 Sudoeste 15 Sur 0 -- -- 68
2020-11-06 21:00:00 18.5 6 Noroeste 22 Oeste 0 -- -- 59
2020-11-06 20:00:00 19.7 4 Oeste 21 Sur 0 -- -- 56
2020-11-06 19:00:00 20.9 10 Sudeste 31 Sur 0 -- -- 49
2020-11-06 18:00:00 21.9 16 Sudeste 36 Sudeste 0 -- -- 43
2020-11-06 17:00:00 22 18 Sudeste 41 Sudeste 0 -- -- 43
2020-11-06 16:00:00 21.5 11 Sudeste 36 Este 0 -- -- 47
2020-11-06 15:00:00 22.1 6 Este 31 Sudeste 0 -- -- 43
2020-11-06 14:00:00 23.6 14 Sudeste 34 Sudeste 0 -- -- 39
2020-11-06 13:00:00 21.7 6 Este 39 Sudeste 0 -- -- 43
2020-11-06 12:00:00 21.2 19 Sudeste 52 Sudeste 0 -- -- 42
2020-11-06 11:00:00 20.7 17 Sudeste 46 Sudeste 0 -- -- 44
2020-11-06 10:00:00 19.9 13 Sudeste 36 Sudeste 0 -- -- 44
2020-11-06 09:00:00 17.9 8 Este 24 Sudeste 0 -- -- 50
2020-11-06 08:00:00 17.5 5 Este 22 Sudeste 0 -- -- 50
2020-11-06 07:00:00 16.2 5 Este 15 Nordeste 0 -- -- 55
2020-11-06 06:00:00 15.4 5 Este 8 Nordeste 0 -- -- 60
2020-11-06 05:00:00 15.6 4 Este 9 Este 0 -- -- 59
2020-11-06 04:00:00 15.3 5 Este 11 Sudeste 0 -- -- 61
2020-11-06 03:00:00 15.9 3 Este 12 Este 0 -- -- 60
2020-11-06 02:00:00 16.3 4 Este 9 Este 0 -- -- 59
2020-11-06 01:00:00 15.6 5 Este 12 Sudeste 0 -- -- 63
2020-11-06 00:00:00 15.4 5 Sudeste 14 Sur 0 -- -- 64
2020-11-05 23:00:00 15.9 5 Este 16 Sudeste 0 -- -- 63
2020-11-05 22:00:00 16.4 9 Sudeste 21 Sudeste 0 -- -- 62
2020-11-05 21:00:00 16.3 5 Este 24 Sudeste 0 -- -- 65
2020-11-05 20:00:00 16.3 4 Este 19 Sudeste 0 -- -- 66
2020-11-05 19:00:00 17 9 Sudeste 19 Sudeste 0 -- -- 64
2020-11-05 18:00:00 17.3 4 Este 15 Sudeste 0 -- -- 63
2020-11-05 17:00:00 17.8 5 Este 19 Sudeste 0 -- -- 63
2020-11-05 16:00:00 17.8 6 Este 16 Este 0 -- -- 64
2020-11-05 15:00:00 16.9 5 Este 15 Sudeste 0 -- -- 68
2020-11-05 14:00:00 16.3 6 Este 18 Nordeste 0 -- -- 72
2020-11-05 13:00:00 15.6 4 Este 28 Sudeste 0.2 -- -- 77
2020-11-05 12:00:00 16 14 Sudeste 35 Sudeste 0 -- -- 74
2020-11-05 11:00:00 15.5 11 Sudeste 29 Sur 0 -- -- 72
2020-11-05 10:00:00 14.3 8 Sudeste 27 Sudeste 0 -- -- 81
2020-11-05 09:00:00 12.9 4 Este 18 Sudeste 0 -- -- 90
2020-11-05 08:00:00 12.5 6 Sudeste 12 Sudeste 0 -- -- 91
2020-11-05 07:00:00 12.9 3 Este 15 Nordeste 0 -- -- 88
2020-11-05 06:00:00 12.4 5 Este 26 Nordeste 0 -- -- 90
2020-11-05 05:00:00 12.1 8 Nordeste 15 Nordeste 5.8 -- -- 90
2020-11-05 04:00:00 13 3 Nordeste 8 Nordeste 2.4 -- -- 83
2020-11-05 03:00:00 13.3 5 Sudeste 13 Sudeste 0 -- -- 78
2020-11-05 02:00:00 13.7 4 Sudeste 14 Sudeste 0 -- -- 76
2020-11-05 01:00:00 13.5 3 Este 14 Nordeste 0 -- -- 76
2020-11-05 00:00:00 13.2 3 Este 13 Nordeste 0 -- -- 80
2020-11-04 23:00:00 13.3 3 Este 18 Nordeste 0 -- -- 83
2020-11-04 22:00:00 13.1 0 Calma 8 Nordeste 0 -- -- 88
2020-11-04 21:00:00 13.3 0 Calma 12 Sudeste 0.2 -- -- 87
2020-11-04 20:00:00 13.9 2 Este 11 Sudeste 0.2 -- -- 84
2020-11-04 19:00:00 14.1 0 Calma 9 Nordeste 0 -- -- 79
2020-11-04 18:00:00 14.3 2 Norte 10 Norte 0 -- -- 83
2020-11-04 17:00:00 14.7 5 Noroeste 9 Norte 0 -- -- 80
2020-11-04 16:00:00 15.1 0 Calma 6 Este 0 -- -- 75
2020-11-04 15:00:00 15.3 0 Calma 8 Sudeste 0.2 -- -- 75
2020-11-04 14:00:00 15.1 5 Sudeste 10 Nordeste 0 -- -- 70
2020-11-04 13:00:00 14.6 0 Calma 7 Nordeste 0 -- -- 75
2020-11-04 12:00:00 14.2 3 Nordeste 8 Nordeste 0 -- -- 79
2020-11-04 11:00:00 13.4 4 Nordeste 11 Sudeste 0 -- -- 89
2020-11-04 10:00:00 12.8 5 Sudeste 13 Este 0 -- -- 90
2020-11-04 09:00:00 12.6 4 Sur 10 Sudoeste 0 -- -- 91
2020-11-04 08:00:00 13 0 Calma 8 Sudeste 0.2 -- -- 90
2020-11-04 07:00:00 12.9 0 Calma 12 Sudeste 0.2 -- -- 90
2020-11-04 06:00:00 13.2 9 Sudeste 17 Sudeste 2.4 -- -- 90
2020-11-04 05:00:00 13.5 3 Sudoeste 18 Nordeste 1.4 -- -- 87
2020-11-04 04:00:00 15.2 2 Este 11 Sudeste 0 -- -- 70
2020-11-04 03:00:00 15.2 3 Este 16 Nordeste 0 -- -- 68
2020-11-04 02:00:00 15.7 8 Nordeste 17 Norte 0 -- -- 66
2020-11-04 01:00:00 16.3 5 Norte 15 Nordeste 0 -- -- 60
2020-11-04 00:00:00 16.9 4 Nordeste 17 Nordeste 0 -- -- 57
2020-11-03 23:00:00 17.5 6 Nordeste 21 Nordeste 0 -- -- 52
2020-11-03 22:00:00 17.7 6 Nordeste 24 Nordeste 0 -- -- 51
2020-11-03 21:00:00 18.4 11 Nordeste 27 Nordeste 0 -- -- 50
2020-11-03 20:00:00 19.1 17 Nordeste 34 Nordeste 0 -- -- 52
2020-11-03 19:00:00 20.7 7 Nordeste 16 Oeste 0 -- -- 48
2020-11-03 18:00:00 21.6 4 Sudoeste 13 Oeste 0 -- -- 42
2020-11-03 17:00:00 23.3 3 Sudoeste 15 Oeste 0 -- -- 38
2020-11-03 16:00:00 24.8 7 Oeste 15 Oeste 0 -- -- 34
2020-11-03 15:00:00 24.5 5 Oeste 14 Noroeste 0 -- -- 34
2020-11-03 14:00:00 23.6 6 Noroeste 12 Noroeste 0 -- -- 38
2020-11-03 13:00:00 21.7 4 Norte 10 Noroeste 0 -- -- 42
2020-11-03 12:00:00 21.1 3 Este 11 Sudeste 0 -- -- 43
2020-11-03 11:00:00 18.2 3 Este 12 Sudeste 0 -- -- 50
2020-11-03 10:00:00 16.4 4 Este 12 Sudeste 0 -- -- 55
2020-11-03 09:00:00 13.4 6 Sudeste 14 Sudeste 0 -- -- 63
2020-11-03 08:00:00 12.8 3 Este 10 Sudeste 0 -- -- 65
2020-11-03 07:00:00 12.4 4 Sudeste 10 Sudeste 0 -- -- 65
2020-11-03 06:00:00 13.6 5 Sudeste 9 Sudeste 0 -- -- 63
2020-11-03 05:00:00 14 4 Sudeste 11 Sudeste 0 -- -- 60
2020-11-03 04:00:00 14.7 0 Calma 3 Sudeste 0 -- -- 56
2020-11-03 03:00:00 15 0 Calma 10 Sudeste 0 -- -- 54
2020-11-03 02:00:00 15 7 Sudeste 10 Sudeste 0 -- -- 56
2020-11-03 01:00:00 15.8 5 Sudeste 10 Sudeste 0 -- -- 55
2020-11-03 00:00:00 16.1 0 Calma 3 Oeste 0 -- -- 52
2020-11-02 23:00:00 17.4 0 Calma 3 Sudeste 0 -- -- 47
2020-11-02 22:00:00 18.6 0 Calma 3 Sudoeste 0 -- -- 44
2020-11-02 21:00:00 18.9 0 Calma 8 Oeste 0 -- -- 43
2020-11-02 20:00:00 20.2 0 Calma 8 Sudoeste 0 -- -- 39
2020-11-02 19:00:00 20.4 4 Sur 6 Sur 0 -- -- 39
2020-11-02 18:00:00 22.6 0 Calma 11 Oeste 0 -- -- 37
2020-11-02 17:00:00 24.9 3 Sudoeste 14 Oeste 0 -- -- 31
2020-11-02 16:00:00 26.1 4 Sudoeste 15 Oeste 0 -- -- 28
2020-11-02 15:00:00 25.4 5 Oeste 13 Oeste 0 -- -- 30
2020-11-02 14:00:00 25.2 5 Oeste 11 Oeste 0 -- -- 32
2020-11-02 13:00:00 23.5 2 Noroeste 9 Sudeste 0 -- -- 37
2020-11-02 12:00:00 22.4 4 Sudeste 12 Sudeste 0 -- -- 40
2020-11-02 11:00:00 19.4 4 Nordeste 9 Nordeste 0 -- -- 48
2020-11-02 10:00:00 17.2 4 Este 12 Este 0 -- -- 54
2020-11-02 09:00:00 14 6 Sudeste 14 Sudeste 0 -- -- 64
2020-11-02 08:00:00 13.2 3 Este 12 Sudeste 0 -- -- 66
2020-11-02 07:00:00 12.5 9 Sudeste 13 Sudeste 0 -- -- 69
2020-11-02 06:00:00 13.8 4 Sudeste 9 Sudeste 0 -- -- 64
2020-11-02 05:00:00 14.4 3 Este 7 Sudeste 0 -- -- 62
2020-11-02 04:00:00 15 0 Calma 3 Sudeste 0 -- -- 59
2020-11-02 03:00:00 15.2 0 Calma 6 Sudeste 0 -- -- 58
2020-11-02 02:00:00 15.6 3 Sudeste 11 Este 0 -- -- 56
2020-11-02 01:00:00 16.4 4 Sudeste 10 Sudeste 0 -- -- 56
2020-11-02 00:00:00 16.8 3 Sudeste 10 Sudeste 0 -- -- 56
2020-11-01 23:00:00 16.7 5 Sudeste 8 Sudeste 0 -- -- 58
2020-11-01 22:00:00 17.9 0 Calma 4 Sudeste 0 -- -- 53
2020-11-01 21:00:00 18.9 0 Calma 7 Oeste 0 -- -- 50
2020-11-01 20:00:00 19.3 3 Sudoeste 5 Sudoeste 0 -- -- 48
2020-11-01 19:00:00 20.4 0 Calma 5 Sur 0 -- -- 45
2020-11-01 18:00:00 22.4 0 Calma 11 Oeste 0 -- -- 38
2020-11-01 17:00:00 24.8 5 Oeste 13 Oeste 0 -- -- 34
2020-11-01 16:00:00 25.5 4 Noroeste 10 Oeste 0 -- -- 30
2020-11-01 15:00:00 26.3 4 Sudeste 9 Sudeste 0 -- -- 31
2020-11-01 14:00:00 25.4 3 Sudeste 12 Sudeste 0 -- -- 33
2020-11-01 13:00:00 23.1 5 Sudeste 10 Sudeste 0 -- -- 39
2020-11-01 12:00:00 21.7 4 Este 14 Sudeste 0 -- -- 44
2020-11-01 11:00:00 18.6 5 Sudeste 13 Sudeste 0 -- -- 52
2020-11-01 10:00:00 16.5 3 Este 8 Sudeste 0 -- -- 57
2020-11-01 09:00:00 14.7 3 Este 9 Este 0 -- -- 62
2020-11-01 08:00:00 12.8 7 Sudeste 12 Sudeste 0 -- -- 71
2020-11-01 07:00:00 13.1 2 Este 13 Sudeste 0 -- -- 69
2020-11-01 06:00:00 13.2 6 Sudeste 11 Sudeste 0 -- -- 69
2020-11-01 05:00:00 13.8 4 Sudeste 9 Sudeste 0 -- -- 67
2020-11-01 04:00:00 14.5 2 Sudeste 5 Sudeste 0 -- -- 64
2020-11-01 03:00:00 14.9 0 Calma 8 Sudeste 0 -- -- 63
2020-11-01 02:00:00 15.1 3 Sudeste 8 Sudeste 0 -- -- 63
2020-11-01 01:00:00 15.4 6 Sudeste 8 Sudeste 0 -- -- 62
2020-11-01 00:00:00 15.5 4 Sur 5 Sur 0 -- -- 63
2020-10-31 23:00:00 17 0 Calma 7 Sur 0 -- -- 58
2020-10-31 22:00:00 17.9 0 Calma 5 Oeste 0 -- -- 54
2020-10-31 21:00:00 18.5 0 Calma 8 Oeste 0 -- -- 51
2020-10-31 20:00:00 19.3 3 Sudoeste 6 Sudoeste 0 -- -- 48
2020-10-31 19:00:00 20.9 4 Sur 8 Sur 0 -- -- 44
2020-10-31 18:00:00 22.6 2 Sur 11 Oeste 0 -- -- 39
2020-10-31 17:00:00 24.7 5 Oeste 12 Oeste 0 -- -- 34
2020-10-31 16:00:00 25 5 Oeste 12 Oeste 0 -- -- 33
2020-10-31 15:00:00 25 5 Oeste 15 Oeste 0 -- -- 34
2020-10-31 14:00:00 23.9 4 Oeste 14 Noroeste 0 -- -- 38
2020-10-31 13:00:00 22.1 4 Noroeste 11 Noroeste 0 -- -- 43
2020-10-31 12:00:00 20.4 0 Calma 11 Sudeste 0 -- -- 46
2020-10-31 11:00:00 18.3 3 Sudeste 10 Sudeste 0 -- -- 52
2020-10-31 10:00:00 17 3 Sudeste 10 Sudeste 0 -- -- 56
2020-10-31 09:00:00 15.1 6 Sudeste 10 Sudeste 0 -- -- 63
2020-10-31 08:00:00 14.2 2 Sudeste 8 Sudeste 0 -- -- 63
2020-10-31 07:00:00 13.8 5 Sudeste 8 Sudeste 0 -- -- 65
2020-10-31 06:00:00 14.5 3 Sudeste 8 Sudeste 0 -- -- 62
2020-10-31 05:00:00 14.7 3 Sudeste 6 Sudeste 0 -- -- 60
2020-10-31 04:00:00 15.7 5 Sudeste 10 Sudeste 0 -- -- 58
2020-10-31 03:00:00 16.2 0 Calma 9 Sudeste 0 -- -- 57
2020-10-31 02:00:00 16.5 0 Calma 6 Sudeste 0 -- -- 54
2020-10-31 01:00:00 16.4 2 Sudeste 6 Nordeste 0 -- -- 54
2020-10-31 00:00:00 18.2 2 Este 5 Nordeste 0 -- -- 48
2020-10-30 23:00:00 19.5 3 Este 6 Nordeste 0 -- -- 43
2020-10-30 22:00:00 20.2 3 Este 13 Nordeste 0 -- -- 41
2020-10-30 21:00:00 20.4 0 Calma 11 Este 0 -- -- 42
2020-10-30 20:00:00 21.7 8 Nordeste 17 Nordeste 0 -- -- 39
2020-10-30 19:00:00 21 0 Calma 4 Norte 0 -- -- 39
2020-10-30 18:00:00 23.2 0 Calma 6 Este 0 -- -- 35
2020-10-30 17:00:00 25.3 3 Sudeste 11 Sudeste 0 -- -- 31
2020-10-30 16:00:00 25.9 5 Sudeste 14 Sudeste 0 -- -- 31
2020-10-30 15:00:00 26.1 4 Sudeste 12 Sudeste 0 -- -- 33
2020-10-30 14:00:00 26 4 Este 14 Sudeste 0 -- -- 33
2020-10-30 13:00:00 23.9 5 Este 14 Sudeste 0 -- -- 39
2020-10-30 12:00:00 23 4 Este 13 Sudeste 0 -- -- 43
2020-10-30 11:00:00 19.9 4 Este 10 Sudeste 0 -- -- 51
2020-10-30 10:00:00 17.6 4 Este 12 Sudeste 0 -- -- 60
2020-10-30 09:00:00 15.6 4 Este 13 Este 0 -- -- 67
2020-10-30 08:00:00 14.4 3 Este 7 Este 0 -- -- 71
2020-10-30 07:00:00 14.7 3 Este 10 Sudeste 0 -- -- 70
2020-10-30 06:00:00 14.8 3 Este 12 Sudeste 0 -- -- 70
2020-10-30 05:00:00 14.9 4 Este 10 Sudeste 0 -- -- 70
2020-10-30 04:00:00 15.3 3 Este 6 Sudeste 0 -- -- 69
2020-10-30 03:00:00 15.5 3 Este 6 Este 0 -- -- 69
2020-10-30 02:00:00 16.4 3 Este 9 Nordeste 0 -- -- 66
2020-10-30 01:00:00 15.9 4 Este 9 Este 0 -- -- 69
2020-10-30 00:00:00 16.3 3 Este 10 Sudeste 0 -- -- 67
2020-10-29 23:00:00 16.8 4 Este 12 Sudeste 0 -- -- 65
2020-10-29 22:00:00 17.4 4 Este 13 Sudeste 0 -- -- 63
2020-10-29 21:00:00 18.4 3 Este 15 Nordeste 0 -- -- 58
2020-10-29 20:00:00 20.1 11 Nordeste 20 Nordeste 0 -- -- 51
2020-10-29 19:00:00 20.1 4 Nordeste 9 Este 0 -- -- 44
2020-10-29 18:00:00 21.9 2 Nordeste 7 Este 0 -- -- 42
2020-10-29 17:00:00 23.7 2 Sudeste 10 Sudeste 0 -- -- 37
2020-10-29 16:00:00 24.3 3 Sudeste 12 Sudeste 0 -- -- 39
2020-10-29 15:00:00 24.6 4 Este 18 Sudeste 0 -- -- 39
2020-10-29 14:00:00 24.3 4 Este 13 Norte 0 -- -- 41
2020-10-29 13:00:00 21.9 3 Este 17 Sudeste 0 -- -- 49
2020-10-29 12:00:00 20.6 5 Este 15 Sudeste 0 -- -- 52
2020-10-29 11:00:00 17.3 5 Este 13 Sudeste 0 -- -- 63
2020-10-29 10:00:00 14.6 5 Este 10 Este 0 -- -- 72
2020-10-29 09:00:00 12.1 4 Este 9 Este 0 -- -- 81
2020-10-29 08:00:00 11.2 4 Este 7 Este 0 -- -- 84
2020-10-29 07:00:00 11.3 3 Este 11 Este 0 -- -- 84
2020-10-29 06:00:00 10.9 3 Este 15 Sudeste 0 -- -- 86
2020-10-29 05:00:00 12.4 4 Este 11 Este 0 -- -- 79
2020-10-29 04:00:00 13 3 Este 6 Este 0 -- -- 78
2020-10-29 03:00:00 13.3 3 Este 9 Este 0 -- -- 77
2020-10-29 02:00:00 13.9 3 Este 7 Este 0 -- -- 76
2020-10-29 01:00:00 14.2 4 Sudeste 8 Este 0 -- -- 74
2020-10-29 00:00:00 14.7 3 Este 12 Sudeste 0 -- -- 68
2020-10-28 23:00:00 14.6 5 Sudeste 11 Sudeste 0 -- -- 64
2020-10-28 22:00:00 15.4 3 Nordeste 8 Norte 0 -- -- 61
2020-10-28 21:00:00 15.4 3 Noroeste 6 Noroeste 0 -- -- 62
2020-10-28 20:00:00 15.7 3 Sudoeste 8 Oeste 0 -- -- 56
2020-10-28 19:00:00 16.8 3 Sur 6 Sur 0 -- -- 52
2020-10-28 18:00:00 18.7 2 Sur 5 Sudoeste 0 -- -- 50
2020-10-28 17:00:00 20.2 0 Calma 7 Oeste 0 -- -- 46
2020-10-28 16:00:00 20.3 3 Sudoeste 15 Norte 0 -- -- 44
2020-10-28 15:00:00 19.7 3 Noroeste 9 Noroeste 0 -- -- 45
2020-10-28 14:00:00 19.5 3 Nordeste 10 Sudeste 0 -- -- 47
2020-10-28 13:00:00 17 4 Este 13 Nordeste 0 -- -- 54
2020-10-28 12:00:00 15.9 3 Este 10 Nordeste 0 -- -- 60
2020-10-28 11:00:00 13.6 4 Este 12 Sur 0 -- -- 67
2020-10-28 10:00:00 11.7 4 Este 11 Sudeste 0 -- -- 72
2020-10-28 09:00:00 9.6 3 Sudeste 6 Sur 0 -- -- 80
2020-10-28 08:00:00 8.3 3 Este 4 Este 0 -- -- 83
2020-10-28 07:00:00 8.1 3 Sudeste 11 Sudeste 0 -- -- 82
2020-10-28 06:00:00 8 5 Sudeste 13 Sudeste 0 -- -- 82
2020-10-28 05:00:00 8.2 7 Sudeste 12 Sudeste 0 -- -- 80
2020-10-28 04:00:00 8.3 5 Sudeste 9 Sudeste 0 -- -- 81
2020-10-28 03:00:00 9 0 Calma 5 Sudeste 0 -- -- 78
2020-10-28 02:00:00 9.2 0 Calma 6 Sudeste 0 -- -- 76
2020-10-28 01:00:00 9.5 3 Sudeste 6 Sudeste 0 -- -- 76
2020-10-28 00:00:00 9.7 4 Sudeste 7 Sudeste 0 -- -- 74